Inicio METAR Ruta Wind Satelite

Informe Meteorológico

Fecha: 2020/07/02 01:35:44 Local
2020.07.02 06:35 UTC


Estado: VENCIDO
Operación:
Station name not available
Mar 04, 2020 - 07:00 AM EST / 2020.03.04 1200 UTC
Wind: from the N (010 degrees) at 3 MPH (3 KT) (direction variable):0
Visibility: 4 mile(s):0
Sky conditions: mostly cloudy
Weather: fog in the vicinity
Temperature: 55 F (13 C)
Dew Point: 51 F (11 C)
Relative Humidity: 87%
Pressure (altimeter): 30.38 in. Hg (1028 hPa)
ob: SKGY 041200Z 01003KT 330V050 8000 VCFG SCT020 BKN120 13/11 A3038
cycle: 12